createdAt,value
2023-05-09T00:07:59.519Z,97953.44
2023-05-09T00:18:12.636Z,97937.44
2023-05-09T00:28:25.520Z,97910.13
2023-05-09T00:38:38.505Z,97871.84
2023-05-09T00:48:51.517Z,97843.63
2023-05-09T00:59:11.555Z,97815.59
2023-05-09T01:09:33.546Z,97791.28
2023-05-09T01:20:13.558Z,97701.78
2023-05-09T01:30:26.532Z,97666.16
2023-05-09T01:40:39.570Z,97622.03
2023-05-09T01:50:53.571Z,97572.84
2023-05-09T02:01:07.644Z,97528.66
2023-05-09T02:11:27.572Z,97486.94
2023-05-09T02:21:40.585Z,97456.81
2023-05-09T02:31:54.617Z,97444.97
2023-05-09T02:42:16.613Z,97429.75
2023-05-09T02:52:29.597Z,97410.37
2023-05-09T03:02:42.663Z,97395.50
2023-05-09T03:12:55.641Z,97336.47
2023-05-09T04:14:29.698Z,97291.34
2023-05-09T04:24:41.645Z,97291.34
2023-05-09T04:34:54.680Z,96922.41
2023-05-09T04:45:08.656Z,96960.41
2023-05-09T04:55:21.704Z,97021.31
2023-05-09T05:05:36.965Z,97213.03
2023-05-09T05:15:50.761Z,97278.66
2023-05-09T05:26:03.692Z,97372.97
2023-05-09T05:36:16.704Z,97428.72
2023-05-09T05:46:29.723Z,97447.34
2023-05-09T05:56:42.732Z,97527.59
2023-05-09T06:06:55.707Z,97573.00
2023-05-09T06:17:15.810Z,97571.69
2023-05-09T06:27:28.733Z,97605.75
2023-05-09T06:37:42.756Z,97644.03
2023-05-09T06:47:55.784Z,97760.34
2023-05-09T06:58:08.799Z,97841.22
2023-05-09T07:08:21.739Z,97875.84
2023-05-09T07:18:34.849Z,97883.69
2023-05-09T07:28:47.772Z,98003.37
2023-05-09T07:39:07.828Z,97955.69
2023-05-09T07:49:20.797Z,98012.56
2023-05-09T07:59:33.826Z,98023.00
2023-05-09T08:09:46.788Z,98097.91
2023-05-09T08:19:59.830Z,98097.91
2023-05-09T08:30:13.995Z,98112.97
2023-05-09T08:40:26.833Z,98135.47
2023-05-09T08:50:39.819Z,98160.19
2023-05-09T09:00:52.888Z,98147.72
2023-05-09T09:11:12.832Z,98109.59
2023-05-09T09:21:26.882Z,98096.00
2023-05-09T09:31:40.900Z,98038.38
2023-05-09T09:41:53.888Z,98125.16
2023-05-09T09:52:06.876Z,98062.50
2023-05-09T10:02:19.863Z,98065.22
2023-05-09T10:12:42.982Z,98164.25
2023-05-09T10:22:56.901Z,98153.34
2023-05-09T10:33:16.946Z,98154.56
2023-05-09T10:43:32.244Z,98185.91
2023-05-09T10:53:56.968Z,98198.19
2023-05-09T11:04:16.952Z,98186.91
2023-05-09T11:14:52.980Z,98214.72
2023-05-09T11:25:20.976Z,98260.69
2023-05-09T11:35:36.958Z,98230.78
2023-05-09T11:45:50.057Z,98253.78
2023-05-09T11:56:02.986Z,98225.69
2023-05-09T12:06:16.981Z,98178.66
2023-05-09T12:16:30.043Z,98094.84
2023-05-09T12:26:42.975Z,97959.63
2023-05-09T12:36:59.010Z,97984.50
2023-05-09T12:47:12.998Z,97903.72
2023-05-09T12:57:35.055Z,97929.34
2023-05-09T13:07:55.011Z,97928.31
2023-05-09T13:18:08.059Z,97904.56
2023-05-09T13:28:21.062Z,97992.09
2023-05-09T13:38:34.035Z,98062.44
2023-05-09T13:48:47.080Z,98090.69
2023-05-09T13:59:00.103Z,98146.44
2023-05-09T14:09:21.058Z,98234.41
2023-05-09T14:19:38.095Z,98281.50
2023-05-09T14:29:51.124Z,98388.72
2023-05-09T14:40:04.111Z,98451.59
2023-05-09T14:50:19.084Z,98512.31
2023-05-09T15:00:33.120Z,98540.66
2023-05-09T15:10:53.089Z,98579.12
2023-05-09T15:21:06.133Z,98575.03
2023-05-09T15:31:19.183Z,98596.50
2023-05-09T15:41:32.127Z,98588.47
2023-05-09T15:51:45.132Z,98607.50
2023-05-09T16:01:58.410Z,98589.63
2023-05-09T16:12:18.175Z,98595.22
2023-05-09T16:22:31.144Z,98591.53
2023-05-09T16:32:44.210Z,98584.50
2023-05-09T16:42:57.216Z,98580.19
2023-05-09T17:02:23.001Z,98581.06
2023-05-09T17:12:29.715Z,98578.00
2023-05-09T17:22:37.123Z,98574.19
2023-05-09T17:32:44.149Z,98575.16
2023-05-09T17:42:49.906Z,98573.31
2023-05-09T17:52:57.028Z,98575.03
2023-05-09T18:03:22.272Z,98585.66
2023-05-09T18:13:28.860Z,98561.06
2023-05-09T18:23:35.471Z,98554.72
2023-05-09T18:33:42.072Z,98551.16
2023-05-09T18:43:48.594Z,98546.63
2023-05-09T18:53:55.157Z,98535.69
2023-05-09T19:04:03.167Z,98522.63
2023-05-09T19:14:09.645Z,98512.47
2023-05-09T19:24:16.142Z,98486.78
2023-05-09T19:34:23.062Z,98459.06
2023-05-09T19:44:29.545Z,98415.97
2023-05-09T19:54:36.062Z,98328.78
2023-05-09T20:04:47.916Z,98165.31
2023-05-09T20:14:54.402Z,97974.91
2023-05-09T20:25:01.030Z,97795.81
2023-05-09T20:35:07.782Z,97770.25
2023-05-09T20:45:14.279Z,97695.19
2023-05-09T20:55:20.904Z,97631.31
2023-05-09T21:05:27.507Z,97612.88
2023-05-09T21:15:34.163Z,97603.06
2023-05-09T21:25:41.028Z,97585.37
2023-05-09T21:35:48.504Z,97561.66
2023-05-09T21:45:56.840Z,97561.00
2023-05-09T21:56:03.630Z,97547.03
2023-05-09T22:06:10.308Z,97529.38
2023-05-09T22:16:16.837Z,97522.88
2023-05-09T22:26:23.627Z,97491.97
2023-05-09T22:36:30.147Z,97417.91
2023-05-09T22:46:36.728Z,97362.72
2023-05-09T22:56:44.459Z,97318.94
2023-05-09T23:06:51.310Z,97247.56
2023-05-09T23:16:58.093Z,97178.19
2023-05-09T23:27:04.603Z,97059.72
2023-05-09T23:37:11.162Z,97029.03
2023-05-09T23:47:18.147Z,96964.47
2023-05-09T23:57:24.640Z,96860.28
